< Typhoon 198905 1989 Season Typhoon 198907 >
Typhoon 198906 (ELLIS)
General InformationTrack Information on Google MapsDetailed Wind InformationList of All Images || Disaster Info.ResourceGoogle EarthGE AnimationAtom FeedGeoJSON
Detalied Best Track (Time Zone = UTC)
Year Month Day Hour Lat. Long. Pressure (hPa) Wind (kt) Class Image Chart
1989 6 20 00 16.0 130.9 1004 0 2 Image Chart
1989 6 20 06 16.1 130.0 1004 0 2 Image Chart
1989 6 20 12 16.5 129.0 1004 0 2 Image Chart
1989 6 20 18 16.6 128.7 1004 0 2 Image Chart
1989 6 21 00 16.7 128.5 1004 0 2 Image Chart
1989 6 21 06 16.9 128.3 1002 0 2 Image Chart
1989 6 21 12 17.1 128.1 1002 0 2 Image Chart
1989 6 21 18 17.3 128.0 1000 0 2 Image Chart
1989 6 22 00 17.5 127.8 1000 0 2 Image Chart
1989 6 22 06 18.0 127.5 1000 0 2 Image Chart
1989 6 22 12 19.0 127.3 998 0 2 Image Chart
1989 6 22 18 20.0 127.3 996 35 3 Image Chart
1989 6 23 00 21.2 127.3 992 40 3 Image Chart
1989 6 23 06 24.0 128.0 990 40 3 Image Chart
1989 6 23 12 27.0 129.2 990 45 3 Image Chart
1989 6 23 18 29.8 130.2 985 50 4 Image Chart
1989 6 24 00 33.2 130.9 990 40 3 Image Chart
1989 6 24 03 34.5 130.8 992 0 6 Image Chart
1989 6 24 06 35.0 131.5 994 0 6 Image Chart
1989 6 24 12 37.0 133.0 996 0 6 Image Chart
1989 6 24 18 38.5 134.0 996 0 6 Image Chart
1989 6 25 00 39.5 134.5 996 0 6 Image Chart
1989 6 25 06 41.0 135.0 998 0 6 Image Chart
1989 6 25 12 42.0 136.0 1000 0 6 Image Chart
1989 6 25 18 43.5 137.5 1000 0 6 Image Chart
Japan Meteorological Agency Best Track Data | Correction Date : 1992-10-21
< Typhoon 198905 1989 Season Typhoon 198907 >

Help